createdAt,value
2022-08-07T00:00:32.305Z,13.71
2022-08-07T00:02:36.883Z,13.78
2022-08-07T00:02:37.329Z,13.70
2022-08-07T00:03:36.758Z,13.70
2022-08-07T00:04:32.357Z,13.78
2022-08-07T00:05:31.255Z,13.65
2022-08-07T00:06:33.542Z,13.59
2022-08-07T00:07:40.508Z,13.60
2022-08-07T00:08:32.233Z,13.57
2022-08-07T00:09:34.291Z,13.59
2022-08-07T00:10:31.647Z,13.54
2022-08-07T00:11:33.210Z,13.57
2022-08-07T00:12:31.199Z,13.50
2022-08-07T00:13:31.194Z,13.46
2022-08-07T00:14:31.720Z,13.41
2022-08-07T00:15:37.982Z,13.37
2022-08-07T00:16:32.181Z,13.37
2022-08-07T00:17:31.160Z,13.28
2022-08-07T00:18:31.156Z,13.37
2022-08-07T00:20:00.581Z,13.31
2022-08-07T00:20:34.327Z,13.18
2022-08-07T00:21:57.125Z,13.22
2022-08-07T00:22:35.230Z,13.15
2022-08-07T00:23:31.140Z,13.18
2022-08-07T00:24:31.798Z,13.20
2022-08-07T00:25:37.447Z,13.12
2022-08-07T00:26:58.883Z,13.13
2022-08-07T00:27:51.982Z,13.12
2022-08-07T00:28:34.107Z,13.19
2022-08-07T00:29:32.115Z,13.16
2022-08-07T00:30:31.083Z,13.13
2022-08-07T00:31:38.469Z,13.12
2022-08-07T00:32:32.043Z,13.11
2022-08-07T00:33:32.821Z,13.09
2022-08-07T00:34:31.039Z,13.04
2022-08-07T00:35:31.022Z,12.98
2022-08-07T00:36:31.030Z,13.04
2022-08-07T00:37:47.699Z,12.94
2022-08-07T00:38:32.036Z,12.95
2022-08-07T00:39:31.063Z,12.98
2022-08-07T00:40:39.704Z,12.95
2022-08-07T00:41:31.967Z,12.95
2022-08-07T00:42:30.958Z,12.86
2022-08-07T00:44:01.847Z,12.94
2022-08-07T00:44:32.957Z,12.76
2022-08-07T00:45:30.939Z,12.78
2022-08-07T00:46:31.062Z,12.87
2022-08-07T00:48:09.436Z,12.79
2022-08-07T00:48:32.599Z,12.73
2022-08-07T00:50:21.291Z,12.80
2022-08-07T00:50:46.198Z,12.72
2022-08-07T00:51:58.285Z,12.79
2022-08-07T00:52:33.312Z,12.75
2022-08-07T00:53:38.934Z,12.68
2022-08-07T00:54:31.859Z,12.68
2022-08-07T00:56:02.424Z,12.68
2022-08-07T00:56:33.895Z,12.68
2022-08-07T00:57:31.050Z,12.67
2022-08-07T00:58:30.855Z,12.60
2022-08-07T00:59:35.918Z,12.57
2022-08-07T01:00:31.812Z,12.53
2022-08-07T01:01:44.152Z,12.46
2022-08-07T01:02:31.815Z,12.40
2022-08-07T01:03:56.344Z,12.22
2022-08-07T01:04:32.792Z,12.31
2022-08-07T01:05:30.779Z,12.18
2022-08-07T01:06:30.755Z,12.06
2022-08-07T01:07:31.110Z,12.03
2022-08-07T01:08:30.763Z,11.94
2022-08-07T01:10:04.433Z,11.97
2022-08-07T01:10:31.726Z,11.87
2022-08-07T01:12:10.026Z,11.81
2022-08-07T01:12:31.735Z,11.83
2022-08-07T01:13:35.096Z,11.80
2022-08-07T01:14:30.698Z,11.84
2022-08-07T01:16:00.593Z,11.83
2022-08-07T01:16:31.694Z,11.70
2022-08-07T01:17:30.673Z,11.72
2022-08-07T01:18:30.654Z,11.75
2022-08-07T01:19:32.509Z,11.75
2022-08-07T01:20:30.958Z,11.72
2022-08-07T01:21:30.635Z,11.63
2022-08-07T01:22:30.620Z,11.60
2022-08-07T01:23:34.726Z,11.62
2022-08-07T01:24:31.606Z,11.66
2022-08-07T01:25:53.830Z,11.59
2022-08-07T01:26:31.628Z,11.55
2022-08-07T01:27:32.429Z,11.62
2022-08-07T01:28:30.573Z,11.50
2022-08-07T01:29:33.751Z,11.43
2022-08-07T01:30:30.555Z,11.30
2022-08-07T01:31:41.644Z,11.37
2022-08-07T01:32:31.568Z,11.35
2022-08-07T01:33:55.298Z,11.32
2022-08-07T01:34:31.527Z,11.27
2022-08-07T01:35:52.808Z,11.41
2022-08-07T01:36:34.080Z,11.40
2022-08-07T01:37:30.558Z,11.40
2022-08-07T01:38:30.516Z,11.35
2022-08-07T01:39:41.061Z,11.35
2022-08-07T01:40:31.468Z,11.45
2022-08-07T01:41:30.469Z,11.36
2022-08-07T01:42:38.917Z,11.22
2022-08-07T01:43:34.638Z,11.37
2022-08-07T01:44:31.439Z,11.43
2022-08-07T01:45:37.285Z,11.33
2022-08-07T01:46:31.430Z,11.25
2022-08-07T01:48:18.169Z,11.27
2022-08-07T01:48:31.508Z,11.25
2022-08-07T01:49:31.913Z,11.33
2022-08-07T01:50:30.398Z,11.29
2022-08-07T01:52:04.276Z,11.41
2022-08-07T01:52:31.396Z,11.40
2022-08-07T01:54:11.733Z,11.41
2022-08-07T01:54:37.119Z,11.43
2022-08-07T01:55:33.715Z,11.45
2022-08-07T01:56:30.381Z,11.52
2022-08-07T01:57:30.529Z,11.50
2022-08-07T01:58:33.184Z,11.57
2022-08-07T01:59:30.847Z,11.55
2022-08-07T02:00:30.303Z,11.60
2022-08-07T02:01:59.989Z,11.52
2022-08-07T02:03:11.251Z,11.59
2022-08-07T02:03:42.775Z,11.59
2022-08-07T02:04:31.335Z,11.51
2022-08-07T02:05:43.361Z,11.52
2022-08-07T02:06:32.500Z,11.55
2022-08-07T02:07:44.741Z,11.55
2022-08-07T02:08:31.281Z,11.52
2022-08-07T02:09:43.616Z,11.47
2022-08-07T02:10:31.226Z,11.41
2022-08-07T02:11:30.897Z,11.51
2022-08-07T02:12:31.241Z,11.32
2022-08-07T02:13:57.274Z,11.30
2022-08-07T02:14:35.859Z,11.32
2022-08-07T02:15:31.191Z,11.45
2022-08-07T02:16:33.257Z,11.40
2022-08-07T02:17:34.196Z,11.40
2022-08-07T02:18:30.144Z,11.60
2022-08-07T02:20:04.499Z,11.43
2022-08-07T02:20:31.161Z,11.40
2022-08-07T02:21:56.236Z,11.40
2022-08-07T02:22:31.113Z,11.33
2022-08-07T02:23:30.113Z,11.40
2022-08-07T02:24:31.101Z,11.48
2022-08-07T02:26:10.110Z,11.40
2022-08-07T02:26:34.461Z,11.48
2022-08-07T02:27:34.748Z,11.37
2022-08-07T02:28:30.097Z,11.29
2022-08-07T02:29:30.492Z,11.26
2022-08-07T02:30:30.054Z,11.30
2022-08-07T02:31:30.062Z,11.14
2022-08-07T02:32:30.368Z,11.15
2022-08-07T02:33:32.849Z,11.14
2022-08-07T02:34:31.109Z,11.00
2022-08-07T02:36:28.235Z,11.11
2022-08-07T02:36:32.937Z,11.05
2022-08-07T02:37:33.938Z,10.86
2022-08-07T02:38:31.887Z,10.84
2022-08-07T02:39:43.457Z,10.90
2022-08-07T02:40:35.372Z,10.92
2022-08-07T02:41:33.397Z,10.89
2022-08-07T02:42:29.953Z,11.07
2022-08-07T02:43:29.955Z,10.94
2022-08-07T02:44:34.334Z,10.97
2022-08-07T02:45:59.025Z,10.97
2022-08-07T02:46:30.930Z,10.96
2022-08-07T02:47:45.006Z,10.89
2022-08-07T02:48:30.963Z,10.89
2022-08-07T02:49:56.321Z,10.79
2022-08-07T02:50:31.010Z,10.75
2022-08-07T02:51:42.325Z,10.71
2022-08-07T02:52:31.251Z,10.67
2022-08-07T02:53:29.859Z,10.67
2022-08-07T02:54:29.856Z,10.64
2022-08-07T02:56:04.287Z,10.60
2022-08-07T02:56:31.466Z,10.63
2022-08-07T02:57:30.963Z,10.60
2022-08-07T02:58:29.825Z,10.63
2022-08-07T02:59:29.833Z,10.61
2022-08-07T03:00:30.410Z,10.60
2022-08-07T03:01:36.636Z,10.67
2022-08-07T03:02:30.796Z,10.53
2022-08-07T03:03:49.005Z,10.49
2022-08-07T03:04:30.776Z,10.61
2022-08-07T03:05:35.830Z,10.56
2022-08-07T03:06:33.139Z,10.67
2022-08-07T03:07:58.981Z,10.64
2022-08-07T03:08:30.781Z,10.71
2022-08-07T03:09:42.182Z,10.71
2022-08-07T03:10:30.733Z,10.69
2022-08-07T03:11:32.706Z,10.67
2022-08-07T03:12:31.222Z,10.72
2022-08-07T03:13:29.720Z,10.68
2022-08-07T03:14:30.718Z,10.68
2022-08-07T03:15:47.634Z,10.76
2022-08-07T03:16:30.693Z,10.78
2022-08-07T03:17:29.958Z,10.90
2022-08-07T03:18:35.097Z,10.75
2022-08-07T03:19:36.790Z,10.71
2022-08-07T03:20:30.662Z,10.63
2022-08-07T03:21:33.017Z,10.61
2022-08-07T03:22:30.580Z,10.67
2022-08-07T03:23:33.605Z,10.69
2022-08-07T03:24:30.637Z,10.63
2022-08-07T03:25:32.480Z,10.63
2022-08-07T03:26:29.630Z,10.68
2022-08-07T03:27:30.355Z,10.71
2022-08-07T03:28:37.366Z,10.72
2022-08-07T03:29:30.594Z,10.72
2022-08-07T03:30:29.587Z,10.63
2022-08-07T03:31:43.142Z,10.59
2022-08-07T03:32:30.613Z,10.61
2022-08-07T03:33:39.890Z,10.61
2022-08-07T03:34:30.554Z,10.67
2022-08-07T03:35:43.610Z,10.75
2022-08-07T03:36:30.533Z,10.71
2022-08-07T03:37:32.727Z,10.69
2022-08-07T03:38:33.162Z,10.53
2022-08-07T03:39:45.903Z,10.49
2022-08-07T03:40:35.985Z,10.44
2022-08-07T03:41:42.420Z,10.41
2022-08-07T03:42:30.483Z,10.42
2022-08-07T03:43:32.354Z,10.38
2022-08-07T03:44:34.214Z,10.35
2022-08-07T03:45:31.393Z,10.34
2022-08-07T03:46:29.463Z,10.38
2022-08-07T03:47:47.749Z,10.42
2022-08-07T03:48:30.471Z,10.37
2022-08-07T03:49:29.445Z,10.38
2022-08-07T03:50:29.441Z,10.31
2022-08-07T03:51:31.018Z,10.42
2022-08-07T03:52:30.736Z,10.41
2022-08-07T03:54:01.903Z,10.38
2022-08-07T03:54:35.954Z,10.38
2022-08-07T03:55:53.379Z,10.34
2022-08-07T03:56:33.451Z,10.41
2022-08-07T03:58:35.449Z,10.37
2022-08-07T03:59:09.711Z,10.26
2022-08-07T03:59:30.369Z,10.26
2022-08-07T04:00:33.632Z,10.35
2022-08-07T04:01:32.324Z,10.22
2022-08-07T04:02:29.352Z,10.25
2022-08-07T04:03:29.342Z,10.12
2022-08-07T04:04:32.661Z,10.16
2022-08-07T04:05:40.412Z,10.05
2022-08-07T04:06:37.787Z,10.02
2022-08-07T04:07:36.214Z,10.13
2022-08-07T04:08:30.311Z,10.15
2022-08-07T04:09:38.011Z,10.10
2022-08-07T04:10:30.290Z,10.23
2022-08-07T04:12:23.771Z,10.04
2022-08-07T04:12:30.275Z,10.05
2022-08-07T04:13:29.275Z,10.02
2022-08-07T04:14:37.900Z,10.04
2022-08-07T04:15:30.253Z,9.87
2022-08-07T04:16:30.946Z,9.89
2022-08-07T04:18:11.263Z,9.97
2022-08-07T04:18:57.519Z,9.98
2022-08-07T04:19:51.094Z,10.09
2022-08-07T04:20:30.653Z,10.02
2022-08-07T04:21:31.861Z,10.02
2022-08-07T04:22:30.117Z,9.92
2022-08-07T04:23:43.611Z,9.84
2022-08-07T04:24:34.300Z,9.94
2022-08-07T04:25:30.169Z,9.84
2022-08-07T04:26:30.159Z,9.94
2022-08-07T04:27:35.626Z,9.92
2022-08-07T04:28:29.145Z,9.98
2022-08-07T04:29:30.380Z,9.94
2022-08-07T04:30:39.375Z,9.98
2022-08-07T04:31:39.305Z,10.10
2022-08-07T04:32:34.217Z,10.13
2022-08-07T04:33:29.110Z,10.20
2022-08-07T04:34:33.233Z,10.19
2022-08-07T04:35:35.458Z,10.23
2022-08-07T04:36:30.083Z,10.54
2022-08-07T04:37:29.086Z,10.94
2022-08-07T04:38:30.071Z,11.04
2022-08-07T04:39:29.139Z,11.15
2022-08-07T04:40:31.447Z,11.11
2022-08-07T04:41:29.044Z,11.10
2022-08-07T04:42:30.042Z,11.17
2022-08-07T04:44:10.392Z,11.15
2022-08-07T04:44:29.022Z,11.35
2022-08-07T04:45:57.217Z,11.72
2022-08-07T04:46:34.499Z,12.13
2022-08-07T04:48:00.428Z,12.72
2022-08-07T04:48:30.017Z,13.11
2022-08-07T04:49:29.271Z,13.27
2022-08-07T04:50:29.973Z,13.47
2022-08-07T04:51:28.978Z,13.86
2022-08-07T04:52:29.001Z,14.22
2022-08-07T04:54:01.078Z,14.48
2022-08-07T04:54:30.508Z,14.73
2022-08-07T04:58:11.625Z,15.67
2022-08-07T04:58:12.865Z,15.40
2022-08-07T04:58:15.072Z,15.14
2022-08-07T04:58:48.812Z,15.95
2022-08-07T05:00:10.747Z,16.42
2022-08-07T05:00:30.688Z,16.71
2022-08-07T05:01:29.976Z,16.93
2022-08-07T05:02:28.898Z,17.14
2022-08-07T05:04:00.501Z,17.42
2022-08-07T05:04:29.867Z,17.71
2022-08-07T05:05:53.568Z,17.87
2022-08-07T05:06:29.856Z,18.01
2022-08-07T05:07:30.579Z,18.19
2022-08-07T05:08:59.672Z,18.20
2022-08-07T05:09:45.346Z,18.03
2022-08-07T05:10:29.822Z,17.94
2022-08-07T05:11:58.254Z,18.05
2022-08-07T05:12:30.477Z,18.25
2022-08-07T05:14:56.174Z,18.68
2022-08-07T05:14:56.261Z,18.89
2022-08-07T05:15:29.816Z,19.19
2022-08-07T05:16:28.771Z,19.45
2022-08-07T05:17:51.598Z,19.62
2022-08-07T05:18:29.843Z,19.63
2022-08-07T05:19:44.202Z,19.76
2022-08-07T05:20:29.747Z,20.00
2022-08-07T05:22:00.835Z,19.94
2022-08-07T05:22:29.732Z,19.95
2022-08-07T05:23:29.842Z,20.04
2022-08-07T05:24:30.634Z,20.28
2022-08-07T05:26:10.969Z,20.56
2022-08-07T05:26:29.702Z,20.78
2022-08-07T05:28:02.816Z,20.93
2022-08-07T05:28:29.907Z,21.02
2022-08-07T05:29:47.986Z,21.18
2022-08-07T05:30:30.785Z,21.33
2022-08-07T05:31:35.254Z,21.46
2022-08-07T05:32:29.671Z,21.89
2022-08-07T05:33:28.658Z,21.79
2022-08-07T05:34:28.743Z,22.25
2022-08-07T05:35:33.504Z,22.38
2022-08-07T05:36:30.332Z,22.28
2022-08-07T05:37:28.767Z,22.36
2022-08-07T05:38:59.412Z,22.29
2022-08-07T05:40:17.253Z,22.41
2022-08-07T05:40:29.642Z,22.54
2022-08-07T05:42:01.138Z,22.76
2022-08-07T05:42:33.736Z,23.00
2022-08-07T05:43:50.071Z,22.83
2022-08-07T05:44:29.872Z,22.99
2022-08-07T05:45:46.789Z,22.98
2022-08-07T05:46:29.670Z,23.10
2022-08-07T05:47:38.679Z,23.15
2022-08-07T05:48:29.547Z,23.08
2022-08-07T05:49:40.896Z,23.27
2022-08-07T05:50:29.549Z,23.44
2022-08-07T05:51:31.439Z,23.41
2022-08-07T05:52:32.194Z,23.25
2022-08-07T05:54:12.611Z,23.12
2022-08-07T05:54:44.156Z,23.25
2022-08-07T05:56:03.386Z,23.46
2022-08-07T05:56:30.164Z,23.41
2022-08-07T05:57:30.153Z,23.55
2022-08-07T05:58:36.185Z,23.55
2022-08-07T05:59:29.470Z,23.71
2022-08-07T06:00:29.470Z,23.80
2022-08-07T06:01:34.835Z,24.32
2022-08-07T06:02:29.687Z,24.28
2022-08-07T06:03:53.916Z,24.53
2022-08-07T06:04:29.877Z,24.63
2022-08-07T06:05:28.661Z,24.48
2022-08-07T06:06:29.588Z,24.13
2022-08-07T06:08:13.682Z,24.42
2022-08-07T06:08:31.434Z,24.69
2022-08-07T06:10:04.437Z,24.74
2022-08-07T06:10:29.396Z,24.81
2022-08-07T06:11:28.631Z,24.86
2022-08-07T06:12:33.012Z,24.96
2022-08-07T06:14:11.417Z,25.18
2022-08-07T06:14:30.288Z,25.21
2022-08-07T06:15:38.914Z,25.78
2022-08-07T06:16:29.422Z,25.96
2022-08-07T06:17:30.627Z,25.77
2022-08-07T06:18:28.359Z,25.59
2022-08-07T06:19:57.513Z,25.85
2022-08-07T06:20:49.976Z,25.99
2022-08-07T06:22:16.545Z,26.15
2022-08-07T06:22:29.341Z,26.26
2022-08-07T06:24:38.584Z,26.70
2022-08-07T06:24:38.657Z,26.55
2022-08-07T06:25:34.859Z,26.56
2022-08-07T06:26:29.318Z,26.43
2022-08-07T06:27:54.408Z,26.41
2022-08-07T06:28:29.315Z,26.68
2022-08-07T06:29:28.541Z,26.81
2022-08-07T06:30:36.090Z,26.95
2022-08-07T06:31:38.846Z,27.12
2022-08-07T06:32:29.514Z,26.97
2022-08-07T06:33:29.666Z,27.17
2022-08-07T06:34:29.763Z,27.12
2022-08-07T06:35:39.132Z,27.05
2022-08-07T06:36:35.588Z,27.02
2022-08-07T06:37:44.159Z,26.93
2022-08-07T06:38:30.382Z,27.02
2022-08-07T06:40:15.649Z,27.18
2022-08-07T06:40:34.287Z,27.39
2022-08-07T06:42:00.676Z,27.29
2022-08-07T06:42:35.065Z,27.82
2022-08-07T06:43:39.655Z,27.77
2022-08-07T06:44:34.184Z,27.98
2022-08-07T06:45:29.170Z,28.37
2022-08-07T06:46:31.490Z,28.76
2022-08-07T06:47:48.145Z,28.86
2022-08-07T06:48:29.175Z,28.51
2022-08-07T06:49:28.165Z,28.52
2022-08-07T06:50:28.128Z,28.52
2022-08-07T06:51:33.342Z,28.22
2022-08-07T06:52:32.049Z,28.14
2022-08-07T06:55:29.814Z,28.29
2022-08-07T06:55:31.422Z,28.19
2022-08-07T06:55:47.903Z,28.26
2022-08-07T06:56:29.087Z,28.04
2022-08-07T06:57:43.598Z,28.10
2022-08-07T06:58:29.078Z,28.17
2022-08-07T07:00:11.393Z,28.26
2022-08-07T07:00:29.095Z,28.26
2022-08-07T07:01:33.117Z,28.08
2022-08-07T07:02:53.585Z,27.89
2022-08-07T07:03:47.564Z,27.60
2022-08-07T07:04:33.204Z,27.73
2022-08-07T07:06:03.686Z,27.93
2022-08-07T07:06:29.029Z,27.85
2022-08-07T07:07:58.679Z,27.70
2022-08-07T07:08:29.213Z,27.36
2022-08-07T07:09:31.336Z,27.14
2022-08-07T07:10:27.999Z,27.11
2022-08-07T07:12:09.096Z,26.90
2022-08-07T07:12:31.467Z,26.55
2022-08-07T07:13:56.414Z,26.53
2022-08-07T07:14:28.973Z,26.23
2022-08-07T07:15:35.906Z,26.38
2022-08-07T07:16:30.237Z,26.37
2022-08-07T07:17:38.625Z,26.00
2022-08-07T07:18:46.997Z,25.84
2022-08-07T07:19:57.428Z,25.80
2022-08-07T07:20:28.957Z,25.60
2022-08-07T07:22:04.011Z,25.55
2022-08-07T07:22:33.900Z,25.48
2022-08-07T07:24:06.298Z,25.25
2022-08-07T07:24:28.905Z,25.14
2022-08-07T07:26:32.753Z,25.01
2022-08-07T07:26:35.320Z,25.14
2022-08-07T07:27:35.561Z,25.04
2022-08-07T07:28:29.716Z,24.74
2022-08-07T07:29:57.078Z,24.65
2022-08-07T07:30:37.941Z,24.73
2022-08-07T07:31:30.507Z,24.57
2022-08-07T07:32:28.869Z,24.55
2022-08-07T07:33:27.841Z,24.48
2022-08-07T07:34:30.615Z,24.53
2022-08-07T07:35:27.831Z,24.33
2022-08-07T07:36:32.324Z,24.32
2022-08-07T07:37:44.399Z,24.47
2022-08-07T07:38:28.830Z,24.51
2022-08-07T07:39:45.708Z,24.38
2022-08-07T07:40:28.802Z,24.36
2022-08-07T07:41:30.902Z,24.30
2022-08-07T07:42:32.457Z,24.20
2022-08-07T07:44:14.297Z,23.93
2022-08-07T07:44:28.776Z,23.87
2022-08-07T07:46:37.921Z,23.34
2022-08-07T07:46:40.088Z,23.74
2022-08-07T07:47:28.743Z,23.00
2022-08-07T07:48:35.082Z,22.70
2022-08-07T07:50:33.578Z,22.65
2022-08-07T07:50:35.021Z,22.59
2022-08-07T07:51:27.792Z,22.93
2022-08-07T07:52:27.933Z,22.99
2022-08-07T07:53:27.709Z,23.00
2022-08-07T07:54:28.688Z,22.91
2022-08-07T07:55:27.704Z,23.10
2022-08-07T07:56:30.346Z,23.31
2022-08-07T07:57:43.963Z,23.37
2022-08-07T07:58:28.664Z,23.59
2022-08-07T07:59:52.748Z,23.78
2022-08-07T08:00:29.744Z,23.98
2022-08-07T08:02:03.512Z,24.23
2022-08-07T08:02:33.710Z,24.36
2022-08-07T08:04:09.487Z,24.39
2022-08-07T08:04:28.690Z,24.43
2022-08-07T08:05:32.973Z,24.50
2022-08-07T08:06:28.632Z,24.36
2022-08-07T08:07:35.862Z,23.98
2022-08-07T08:08:34.372Z,23.76
2022-08-07T08:09:29.282Z,23.77
2022-08-07T08:10:37.954Z,23.86
2022-08-07T08:11:59.763Z,23.99
2022-08-07T08:12:51.243Z,24.08
2022-08-07T08:13:36.599Z,24.10
2022-08-07T08:14:28.555Z,24.28
2022-08-07T08:15:27.549Z,24.33
2022-08-07T08:16:29.836Z,24.33
2022-08-07T08:17:57.286Z,24.38
2022-08-07T08:18:27.525Z,24.63
2022-08-07T08:20:17.116Z,24.45
2022-08-07T08:20:31.772Z,24.21
2022-08-07T08:21:55.963Z,24.23
2022-08-07T08:22:32.861Z,24.32
2022-08-07T08:23:28.115Z,24.50
2022-08-07T08:24:44.729Z,24.26
2022-08-07T08:25:42.512Z,24.05
2022-08-07T08:26:28.458Z,24.17
2022-08-07T08:27:33.468Z,24.43
2022-08-07T08:28:38.232Z,24.42
2022-08-07T08:29:28.473Z,24.36
2022-08-07T08:30:27.438Z,24.35
2022-08-07T08:31:58.374Z,24.20
2022-08-07T08:32:38.123Z,24.18
2022-08-07T08:33:28.932Z,24.23
2022-08-07T08:34:28.983Z,24.20
2022-08-07T08:35:28.816Z,24.13
2022-08-07T08:36:30.012Z,24.45
2022-08-07T08:38:01.418Z,24.39
2022-08-07T08:38:29.857Z,24.47
2022-08-07T08:39:38.880Z,24.68
2022-08-07T08:40:28.933Z,24.88
2022-08-07T08:41:31.540Z,24.84
2022-08-07T08:42:28.359Z,24.86
2022-08-07T08:43:41.752Z,24.95
2022-08-07T08:44:29.306Z,25.11
2022-08-07T08:45:42.059Z,25.28
2022-08-07T08:46:28.356Z,25.29
2022-08-07T08:47:27.463Z,25.18
2022-08-07T08:48:28.371Z,25.14
2022-08-07T08:49:32.851Z,25.18
2022-08-07T08:50:34.948Z,25.33
2022-08-07T08:51:49.687Z,25.54
2022-08-07T08:52:30.381Z,25.65
2022-08-07T08:53:29.421Z,25.65
2022-08-07T08:54:27.286Z,25.58
2022-08-07T08:55:54.831Z,25.22
2022-08-07T08:56:28.251Z,25.16
2022-08-07T08:57:27.622Z,25.03
2022-08-07T08:58:28.835Z,24.98
2022-08-07T08:59:27.244Z,24.96
2022-08-07T09:00:28.622Z,24.85
2022-08-07T09:01:30.008Z,24.91
2022-08-07T09:02:36.566Z,25.03
2022-08-07T09:03:48.030Z,25.18
2022-08-07T09:04:28.844Z,25.38
2022-08-07T09:05:36.895Z,25.60
2022-08-07T09:06:28.210Z,25.77
2022-08-07T09:07:27.303Z,26.05
2022-08-07T09:08:28.487Z,26.09
2022-08-07T09:09:30.242Z,26.21
2022-08-07T09:10:28.163Z,26.13
2022-08-07T09:11:43.335Z,26.05
2022-08-07T09:12:30.867Z,25.99
2022-08-07T09:13:37.572Z,25.84
2022-08-07T09:14:29.650Z,25.85
2022-08-07T09:16:20.482Z,25.80
2022-08-07T09:16:30.408Z,25.84
2022-08-07T09:17:27.321Z,26.13
2022-08-07T09:18:27.110Z,25.99
2022-08-07T09:19:27.159Z,26.13
2022-08-07T09:20:35.156Z,26.21
2022-08-07T09:21:34.070Z,26.09
2022-08-07T09:24:29.327Z,26.05
2022-08-07T09:24:30.927Z,26.31
2022-08-07T09:24:32.114Z,26.16
2022-08-07T09:25:28.064Z,26.18
2022-08-07T09:26:27.057Z,25.99
2022-08-07T09:27:28.805Z,25.95
2022-08-07T09:30:04.693Z,25.93
2022-08-07T09:30:05.593Z,25.63
2022-08-07T09:30:28.410Z,25.50
2022-08-07T09:31:27.025Z,25.59
2022-08-07T09:32:28.014Z,25.70
2022-08-07T09:33:52.758Z,25.83
2022-08-07T09:34:27.998Z,25.99
2022-08-07T09:36:00.996Z,26.26
2022-08-07T09:36:29.280Z,26.47
2022-08-07T09:37:47.802Z,26.45
2022-08-07T09:38:27.975Z,26.43
2022-08-07T09:39:54.532Z,26.70
2022-08-07T09:40:28.035Z,26.52
2022-08-07T09:41:27.740Z,26.58
2022-08-07T09:42:31.608Z,26.52
2022-08-07T09:44:03.455Z,26.40
2022-08-07T09:44:40.485Z,26.63
2022-08-07T09:47:49.907Z,26.70
2022-08-07T09:47:51.359Z,26.56
2022-08-07T09:47:59.290Z,26.56
2022-08-07T09:48:30.014Z,26.74
2022-08-07T09:50:00.616Z,26.93
2022-08-07T09:50:30.027Z,27.18
2022-08-07T09:52:16.826Z,27.42
2022-08-07T09:52:34.666Z,26.90
2022-08-07T09:53:40.477Z,26.92
2022-08-07T09:54:28.314Z,26.89
2022-08-07T09:55:29.575Z,26.78
2022-08-07T09:56:34.070Z,26.41
2022-08-07T09:57:28.097Z,26.36
2022-08-07T09:58:32.249Z,26.48
2022-08-07T09:59:35.751Z,26.71
2022-08-07T10:00:29.935Z,26.75
2022-08-07T10:01:51.546Z,26.59
2022-08-07T10:02:29.830Z,26.77
2022-08-07T10:04:03.166Z,26.71
2022-08-07T10:04:28.096Z,26.70
2022-08-07T10:05:59.034Z,26.62
2022-08-07T10:06:27.854Z,26.62
2022-08-07T10:07:31.681Z,26.74
2022-08-07T10:08:27.790Z,27.11
2022-08-07T10:09:42.921Z,27.22
2022-08-07T10:10:28.173Z,27.12
2022-08-07T10:12:02.036Z,27.26
2022-08-07T10:12:28.357Z,27.35
2022-08-07T10:13:54.759Z,27.63
2022-08-07T10:14:31.188Z,27.49
2022-08-07T10:15:26.731Z,27.59
2022-08-07T10:16:26.720Z,27.33
2022-08-07T10:17:29.895Z,26.92
2022-08-07T10:18:27.708Z,27.00
2022-08-07T10:19:26.706Z,27.18
2022-08-07T10:20:30.595Z,27.02
2022-08-07T10:21:50.779Z,26.74
2022-08-07T10:22:33.349Z,26.70
2022-08-07T10:24:06.373Z,26.51
2022-08-07T10:24:27.654Z,26.45
2022-08-07T10:25:42.333Z,26.37
2022-08-07T10:26:27.657Z,26.58
2022-08-07T10:27:26.720Z,26.66
2022-08-07T10:28:26.639Z,26.31
2022-08-07T10:29:30.188Z,25.98
2022-08-07T10:30:26.618Z,25.90
2022-08-07T10:31:26.605Z,25.93
2022-08-07T10:32:36.412Z,26.05
2022-08-07T10:34:04.929Z,26.38
2022-08-07T10:34:32.201Z,26.41
2022-08-07T10:35:26.596Z,26.38
2022-08-07T10:36:29.487Z,26.41
2022-08-07T10:38:00.410Z,26.33
2022-08-07T10:38:36.031Z,26.21
2022-08-07T10:39:32.580Z,26.21
2022-08-07T10:40:30.345Z,26.00
2022-08-07T10:41:52.310Z,25.84
2022-08-07T10:42:31.195Z,25.90
2022-08-07T10:43:34.151Z,26.07
2022-08-07T10:44:28.678Z,25.98
2022-08-07T10:45:45.295Z,25.77
2022-08-07T10:46:27.499Z,25.85
2022-08-07T10:47:26.891Z,26.02
2022-08-07T10:48:35.030Z,26.31
2022-08-07T10:49:49.373Z,26.60
2022-08-07T10:50:27.512Z,26.77
2022-08-07T10:51:39.146Z,26.89
2022-08-07T10:52:31.795Z,27.02
2022-08-07T10:53:27.468Z,26.97
2022-08-07T10:54:26.442Z,27.05
2022-08-07T10:55:37.729Z,27.11
2022-08-07T10:56:31.575Z,27.15
2022-08-07T10:57:34.346Z,27.02
2022-08-07T10:58:33.360Z,26.93
2022-08-07T10:59:30.315Z,26.70
2022-08-07T11:00:39.548Z,26.31
2022-08-07T11:01:35.789Z,26.16
2022-08-07T11:02:34.016Z,26.10
2022-08-07T11:03:28.163Z,26.25
2022-08-07T11:04:32.014Z,26.45
2022-08-07T11:05:35.942Z,26.62
2022-08-07T11:06:27.372Z,26.70
2022-08-07T11:07:58.834Z,26.81
2022-08-07T11:08:30.152Z,27.00
2022-08-07T11:10:08.465Z,27.11
2022-08-07T11:10:27.668Z,27.20
2022-08-07T11:11:26.333Z,27.15
2022-08-07T11:12:32.356Z,27.20
2022-08-07T11:14:44.399Z,27.27
2022-08-07T11:14:45.252Z,27.25
2022-08-07T11:15:31.885Z,27.42
2022-08-07T11:16:30.533Z,27.47
2022-08-07T11:17:43.394Z,27.11
2022-08-07T11:18:27.549Z,26.97
2022-08-07T11:19:27.299Z,26.68
2022-08-07T11:20:26.263Z,26.37
2022-08-07T11:21:26.260Z,26.43
2022-08-07T11:22:34.029Z,26.48
2022-08-07T11:23:36.274Z,26.56
2022-08-07T11:24:27.237Z,26.78
2022-08-07T11:25:26.224Z,26.95
2022-08-07T11:26:26.242Z,26.99
2022-08-07T11:28:01.581Z,26.89
2022-08-07T11:28:27.231Z,26.99
2022-08-07T11:29:42.193Z,26.96
2022-08-07T11:30:41.462Z,27.02
2022-08-07T11:31:27.200Z,27.17
2022-08-07T11:32:26.486Z,26.95
2022-08-07T11:33:54.289Z,26.78
2022-08-07T11:34:27.198Z,26.75
2022-08-07T11:35:26.999Z,26.60
2022-08-07T11:36:30.982Z,26.74
2022-08-07T11:37:38.630Z,26.65
2022-08-07T11:38:28.236Z,26.85
2022-08-07T11:39:26.146Z,26.84
2022-08-07T11:40:27.728Z,26.88
2022-08-07T11:41:31.072Z,26.74
2022-08-07T11:42:29.713Z,26.52
2022-08-07T11:43:29.445Z,26.58
2022-08-07T11:44:27.095Z,26.34
2022-08-07T11:45:35.428Z,26.28
2022-08-07T11:46:27.114Z,26.29
2022-08-07T11:47:26.290Z,26.44
2022-08-07T11:48:30.187Z,26.43
2022-08-07T11:49:51.171Z,26.68
2022-08-07T11:50:32.249Z,26.71
2022-08-07T11:51:44.561Z,26.90
2022-08-07T11:52:29.146Z,26.89
2022-08-07T11:53:27.035Z,26.89
2022-08-07T11:54:26.029Z,26.99
2022-08-07T11:56:09.607Z,27.07
2022-08-07T11:56:28.307Z,27.32
2022-08-07T11:58:00.849Z,27.42
2022-08-07T11:58:33.462Z,27.52
2022-08-07T12:00:11.749Z,27.48
2022-08-07T12:00:28.245Z,27.71
2022-08-07T12:01:26.012Z,27.77
2022-08-07T12:02:30.554Z,27.30
2022-08-07T12:03:45.265Z,26.97
2022-08-07T12:04:26.971Z,26.99
2022-08-07T12:05:41.362Z,26.74
2022-08-07T12:06:37.057Z,26.77
2022-08-07T12:07:27.865Z,26.96
2022-08-07T12:08:31.935Z,27.02
2022-08-07T12:09:26.188Z,27.05
2022-08-07T12:10:25.921Z,27.22
2022-08-07T12:11:25.935Z,27.33
2022-08-07T12:12:26.920Z,27.44
2022-08-07T12:13:36.665Z,27.55
2022-08-07T12:14:26.906Z,27.59
2022-08-07T12:15:46.507Z,27.80
2022-08-07T12:16:28.831Z,27.60
2022-08-07T12:17:25.877Z,27.73
2022-08-07T12:18:29.686Z,27.75
2022-08-07T12:19:25.881Z,27.77
2022-08-07T12:20:30.237Z,27.73
2022-08-07T12:22:35.854Z,27.74
2022-08-07T12:22:39.466Z,27.77
2022-08-07T12:24:06.329Z,27.52
2022-08-07T12:24:36.847Z,26.97
2022-08-07T12:26:03.183Z,26.99
2022-08-07T12:26:29.323Z,26.90
2022-08-07T12:27:27.977Z,26.88
2022-08-07T12:28:31.041Z,26.75
2022-08-07T12:29:37.513Z,26.74
2022-08-07T12:30:26.786Z,26.93
2022-08-07T12:31:25.790Z,27.03
2022-08-07T12:32:26.786Z,27.17
2022-08-07T12:33:31.045Z,27.15
2022-08-07T12:34:26.767Z,27.00
2022-08-07T12:35:25.752Z,26.85
2022-08-07T12:36:32.636Z,26.80
2022-08-07T12:37:28.139Z,26.73
2022-08-07T12:38:38.491Z,26.71
2022-08-07T12:39:42.291Z,26.70
2022-08-07T12:40:50.986Z,26.70
2022-08-07T12:41:42.752Z,26.89
2022-08-07T12:42:28.119Z,26.93
2022-08-07T12:43:58.776Z,27.07
2022-08-07T12:44:26.698Z,27.05
2022-08-07T12:45:26.341Z,26.89
2022-08-07T12:46:26.513Z,27.00
2022-08-07T12:47:30.317Z,26.89
2022-08-07T12:48:27.888Z,26.70
2022-08-07T12:49:39.673Z,26.75
2022-08-07T12:50:39.396Z,26.77
2022-08-07T12:51:33.197Z,26.77
2022-08-07T12:52:27.094Z,26.71
2022-08-07T12:53:27.655Z,26.58